»·PEaware :: N2983C KEUG-KHQM

N2983C :: KEUG-KHQM

FLIGHT INFORMATION

Flight Status: Arrived
Operator: Privately registered:
United States
More flights under this callsign
Pilot: Roland C. (21206)
Aircraft: CESSNA 172 SKYHAWK
(C172)
More flights by this aircraft type
Origin: KEUG Mahlon Sweet
United States
Destination: KHQM Bowerman
United States
More flights between these airports :: More routes between these airports
Route: +
File this flight plan on PilotEdge
Remarks: FF
Altitude:
(Current/Filed)
6,500ft
Speed:
(Current/Filed)
0kts
Departed: 08-Jan-19 12:35 PM
Arrived: 08-Jan-19 02:14 PM
Distance/Time
Traveled:
174nm/1:38
Distance/Time
To Go:
Arrived

Flight Plot

Page will automatically refresh every two minutes.

Flight plan parsing failed; only flown route is shown


Map Options




Map Legend


Flown Route
Filed Route
Departure Airport
Arrival Airport
Navaid (VOR, NDB)
Fix

Horizontal Profiles

Position Reports

Time Latitude Longitude Heading Altitude Ground
Speed
08-Jan-19 12:23 44.124395 -123.210431 123 372ft 0kts
08-Jan-19 12:24 44.124393 -123.210427 123 372ft 0kts
08-Jan-19 12:25 44.124391 -123.210423 123 372ft 0kts
08-Jan-19 12:26 44.124389 -123.210419 123 372ft 0kts
08-Jan-19 12:27 44.124387 -123.210416 123 372ft 0kts
08-Jan-19 12:28 44.122463 -123.212730 212 372ft 14kts
08-Jan-19 12:29 44.120206 -123.217127 181 372ft 19kts
08-Jan-19 12:30 44.114495 -123.217168 211 372ft 16kts
08-Jan-19 12:31 44.113730 -123.217984 262 372ft 0kts
08-Jan-19 12:32 44.113730 -123.217989 262 372ft 0kts
08-Jan-19 12:33 44.113729 -123.217997 262 372ft 0kts
08-Jan-19 12:34 44.126767 -123.219019 0 571ft 97kts
08-Jan-19 12:35 44.152453 -123.219792 353 1569ft 96kts
08-Jan-19 12:36 44.172991 -123.245088 305 2290ft 105kts
08-Jan-19 12:37 44.184444 -123.282133 284 2991ft 105kts
08-Jan-19 12:38 44.189557 -123.321948 273 3686ft 104kts
08-Jan-19 12:39 44.191316 -123.361976 273 4381ft 102kts
08-Jan-19 12:40 44.193123 -123.401419 274 5069ft 100kts
08-Jan-19 12:41 44.196504 -123.439581 286 5757ft 98kts
08-Jan-19 12:42 44.211818 -123.472677 304 6252ft 111kts
08-Jan-19 12:43 44.231169 -123.509155 308 6474ft 119kts
08-Jan-19 12:44 44.252663 -123.545607 310 6502ft 124kts
08-Jan-19 12:45 44.275443 -123.582480 311 6498ft 122kts
08-Jan-19 12:46 44.297560 -123.617652 311 6498ft 119kts
08-Jan-19 12:47 44.319443 -123.652599 310 6500ft 119kts
08-Jan-19 12:48 44.341895 -123.686869 314 6499ft 119kts
08-Jan-19 12:49 44.364106 -123.721219 311 6500ft 119kts
08-Jan-19 12:50 44.386089 -123.756213 309 6500ft 119kts
08-Jan-19 12:51 44.407947 -123.791238 311 6501ft 119kts
08-Jan-19 12:52 44.429744 -123.826298 311 6500ft 119kts
08-Jan-19 12:53 44.451584 -123.861307 310 6500ft 119kts
08-Jan-19 12:54 44.473375 -123.896371 311 6500ft 119kts
08-Jan-19 12:55 44.495281 -123.931523 310 6500ft 119kts
08-Jan-19 12:56 44.517616 -123.966182 314 6500ft 119kts
08-Jan-19 12:57 44.538922 -124.001724 311 6500ft 119kts
08-Jan-19 12:58 44.560871 -124.036766 313 6500ft 119kts
08-Jan-19 12:59 44.583355 -124.070523 343 6493ft 119kts
08-Jan-19 13:00 44.615903 -124.062894 15 6501ft 119kts
08-Jan-19 13:01 44.647739 -124.049829 16 6500ft 119kts
08-Jan-19 13:02 44.680141 -124.039332 9 6500ft 119kts
08-Jan-19 13:03 44.712749 -124.030708 13 6499ft 119kts
08-Jan-19 13:04 44.746077 -124.022993 8 6501ft 121kts
08-Jan-19 13:05 44.779480 -124.015620 8 6500ft 121kts
08-Jan-19 13:06 44.812653 -124.008335 9 6500ft 121kts
08-Jan-19 13:07 44.846008 -124.000930 9 6499ft 121kts
08-Jan-19 13:08 44.879205 -123.993650 9 6500ft 121kts
08-Jan-19 13:09 44.912617 -123.986196 8 6500ft 121kts
08-Jan-19 13:10 44.945939 -123.978799 8 6500ft 121kts
08-Jan-19 13:11 44.979124 -123.971471 8 6500ft 121kts
08-Jan-19 13:12 45.012401 -123.964057 8 6500ft 121kts
08-Jan-19 13:13 45.045647 -123.956612 8 6500ft 121kts
08-Jan-19 13:14 45.078956 -123.949278 10 6501ft 121kts
08-Jan-19 13:15 45.112232 -123.941671 9 6500ft 121kts
08-Jan-19 13:16 45.145569 -123.934273 9 6500ft 121kts
08-Jan-19 13:17 45.178882 -123.926834 9 6500ft 121kts
08-Jan-19 13:18 45.212093 -123.919333 8 6499ft 121kts
08-Jan-19 13:19 45.245617 -123.922801 350 6500ft 121kts
08-Jan-19 13:20 45.278800 -123.930756 350 6499ft 121kts
08-Jan-19 13:21 45.312181 -123.938840 350 6500ft 121kts
08-Jan-19 13:22 45.345408 -123.946864 350 6500ft 121kts
08-Jan-19 13:23 45.378670 -123.954862 350 6501ft 121kts
08-Jan-19 13:24 45.411957 -123.962885 351 6500ft 121kts
08-Jan-19 13:25 45.445148 -123.970814 350 6500ft 121kts
08-Jan-19 13:26 45.478380 -123.978866 350 6501ft 121kts
08-Jan-19 13:27 45.511731 -123.986903 349 6499ft 121kts
08-Jan-19 13:28 45.545015 -123.994469 356 6500ft 121kts
08-Jan-19 13:29 45.578714 -123.997410 355 6500ft 121kts
08-Jan-19 13:30 45.612388 -124.000617 356 6500ft 121kts
08-Jan-19 13:31 45.645966 -124.002697 5 6499ft 121kts
08-Jan-19 13:32 45.679114 -123.994339 15 6500ft 121kts
08-Jan-19 13:33 45.712031 -123.983879 10 6500ft 121kts
08-Jan-19 13:34 45.745326 -123.975801 8 6500ft 121kts
08-Jan-19 13:35 45.778694 -123.968217 10 6500ft 121kts
08-Jan-19 13:36 45.811932 -123.960002 9 6500ft 121kts
08-Jan-19 13:37 45.845573 -123.962026 359 6500ft 121kts
08-Jan-19 13:38 45.879436 -123.961673 0 6500ft 121kts
08-Jan-19 13:39 45.913082 -123.960956 0 6500ft 121kts
08-Jan-19 13:40 45.946783 -123.960209 0 6500ft 121kts
08-Jan-19 13:41 45.980505 -123.959459 0 6500ft 121kts
08-Jan-19 13:42 46.014339 -123.958701 0 6500ft 121kts
08-Jan-19 13:43 46.047997 -123.957956 0 6500ft 121kts
08-Jan-19 13:44 46.081842 -123.957200 0 6500ft 121kts
08-Jan-19 13:45 46.115503 -123.956445 0 6500ft 121kts
08-Jan-19 13:46 46.149196 -123.955689 1 6499ft 121kts
08-Jan-19 13:47 46.183064 -123.954933 0 6501ft 121kts
08-Jan-19 13:48 46.216737 -123.954178 0 6500ft 121kts
08-Jan-19 13:49 46.250553 -123.953423 0 6500ft 121kts
08-Jan-19 13:50 46.284211 -123.952659 0 6500ft 121kts
08-Jan-19 13:51 46.317915 -123.951901 0 6501ft 121kts
08-Jan-19 13:52 46.351686 -123.951145 0 6501ft 121kts
08-Jan-19 13:54 46.385480 -123.950378 0 6500ft 121kts
08-Jan-19 13:55 46.419244 -123.949611 0 6500ft 121kts
08-Jan-19 13:56 46.452907 -123.948847 0 6500ft 121kts
08-Jan-19 13:57 46.486792 -123.948080 0 6499ft 121kts
08-Jan-19 13:58 46.519764 -123.944544 0 6486ft 118kts
08-Jan-19 13:59 46.553145 -123.946331 0 6471ft 123kts
08-Jan-19 14:00 46.587540 -123.949407 350 5961ft 124kts
08-Jan-19 14:01 46.620685 -123.958020 349 5540ft 121kts
08-Jan-19 14:02 46.653769 -123.967074 346 5077ft 121kts
08-Jan-19 14:03 46.686084 -123.978890 345 4777ft 119kts
08-Jan-19 14:04 46.717755 -123.991718 340 4579ft 119kts
08-Jan-19 14:05 46.748668 -124.006792 344 4455ft 116kts
08-Jan-19 14:06 46.780420 -124.017674 346 4187ft 119kts
08-Jan-19 14:07 46.811943 -124.029954 345 3993ft 116kts
08-Jan-19 14:08 46.843859 -124.037213 353 3685ft 118kts
08-Jan-19 14:09 46.873833 -124.023064 28 3447ft 110kts
08-Jan-19 14:09 46.896751 -124.004198 30 2976ft 112kts
08-Jan-19 14:11 46.930952 -123.999427 353 1760ft 110kts
08-Jan-19 14:12 46.958738 -123.989251 42 840ft 106kts
08-Jan-19 14:13 46.968642 -123.957327 79 210ft 77kts
08-Jan-19 14:13 46.971185 -123.936790 79 17ft 38kts
08-Jan-19 14:14 46.972280 -123.933478 341 17ft 2kts
08-Jan-19 14:15 46.973607 -123.929729 98 17ft 2kts
08-Jan-19 14:17 46.973475 -123.929621 180 17ft 0kts
08-Jan-19 14:18 46.973475 -123.929621 180 17ft 0kts

Navigation Log

Ident Type
Flight plan parsing failed, navigation log unavailable